sensor_id;sensor_type;location;lat;lon;timestamp;P1;durP1;ratioP1;P2;durP2;ratioP2
12896;SDS011;6516;35.028;32.372;2022-12-07T00:01:22;32.72;;;19.90;;
12896;SDS011;6516;35.028;32.372;2022-12-07T00:03:53;35.33;;;20.13;;
12896;SDS011;6516;35.028;32.372;2022-12-07T00:06:26;33.17;;;21.13;;
12896;SDS011;6516;35.028;32.372;2022-12-07T00:08:54;36.35;;;19.20;;
12896;SDS011;6516;35.028;32.372;2022-12-07T00:11:22;31.85;;;19.15;;
12896;SDS011;6516;35.028;32.372;2022-12-07T00:13:52;34.17;;;19.75;;
12896;SDS011;6516;35.028;32.372;2022-12-07T00:16:24;34.90;;;19.33;;
12896;SDS011;6516;35.028;32.372;2022-12-07T00:18:54;33.72;;;18.75;;
12896;SDS011;6516;35.028;32.372;2022-12-07T00:21:23;33.28;;;19.40;;
12896;SDS011;6516;35.028;32.372;2022-12-07T00:23:54;37.17;;;19.00;;
12896;SDS011;6516;35.028;32.372;2022-12-07T00:26:23;33.90;;;18.83;;
12896;SDS011;6516;35.028;32.372;2022-12-07T00:28:56;30.60;;;17.73;;
12896;SDS011;6516;35.028;32.372;2022-12-07T00:31:26;30.35;;;18.52;;
12896;SDS011;6516;35.028;32.372;2022-12-07T00:33:58;32.47;;;18.88;;
12896;SDS011;6516;35.028;32.372;2022-12-07T00:36:27;33.05;;;18.20;;
12896;SDS011;6516;35.028;32.372;2022-12-07T00:38:54;30.83;;;17.77;;
12896;SDS011;6516;35.028;32.372;2022-12-07T00:41:25;36.43;;;19.70;;
12896;SDS011;6516;35.028;32.372;2022-12-07T00:43:55;30.58;;;17.10;;
12896;SDS011;6516;35.028;32.372;2022-12-07T00:46:24;34.15;;;18.67;;
12896;SDS011;6516;35.028;32.372;2022-12-07T00:48:53;30.33;;;17.42;;
12896;SDS011;6516;35.028;32.372;2022-12-07T00:51:22;31.75;;;17.77;;
12896;SDS011;6516;35.028;32.372;2022-12-07T00:53:51;32.13;;;16.77;;
12896;SDS011;6516;35.028;32.372;2022-12-07T00:56:20;34.90;;;18.75;;
12896;SDS011;6516;35.028;32.372;2022-12-07T00:58:51;32.10;;;18.15;;
12896;SDS011;6516;35.028;32.372;2022-12-07T01:01:23;30.80;;;17.35;;
12896;SDS011;6516;35.028;32.372;2022-12-07T01:03:52;31.55;;;17.60;;
12896;SDS011;6516;35.028;32.372;2022-12-07T01:06:21;29.87;;;16.87;;
12896;SDS011;6516;35.028;32.372;2022-12-07T01:08:51;36.03;;;17.38;;
12896;SDS011;6516;35.028;32.372;2022-12-07T01:11:20;31.02;;;16.13;;
12896;SDS011;6516;35.028;32.372;2022-12-07T01:13:50;31.48;;;16.02;;
12896;SDS011;6516;35.028;32.372;2022-12-07T01:16:21;33.85;;;16.58;;
12896;SDS011;6516;35.028;32.372;2022-12-07T01:18:51;29.80;;;15.90;;
12896;SDS011;6516;35.028;32.372;2022-12-07T01:21:21;27.90;;;15.95;;
12896;SDS011;6516;35.028;32.372;2022-12-07T01:23:52;27.75;;;15.18;;
12896;SDS011;6516;35.028;32.372;2022-12-07T01:26:21;28.13;;;15.98;;
12896;SDS011;6516;35.028;32.372;2022-12-07T01:28:51;28.38;;;15.35;;
12896;SDS011;6516;35.028;32.372;2022-12-07T01:31:22;28.23;;;14.90;;
12896;SDS011;6516;35.028;32.372;2022-12-07T01:33:53;27.88;;;14.80;;
12896;SDS011;6516;35.028;32.372;2022-12-07T01:36:23;27.00;;;14.48;;
12896;SDS011;6516;35.028;32.372;2022-12-07T01:38:54;27.08;;;13.77;;
12896;SDS011;6516;35.028;32.372;2022-12-07T01:41:28;28.83;;;15.45;;
12896;SDS011;6516;35.028;32.372;2022-12-07T01:44:17;26.67;;;14.00;;
12896;SDS011;6516;35.028;32.372;2022-12-07T01:46:49;24.90;;;12.70;;
12896;SDS011;6516;35.028;32.372;2022-12-07T01:49:20;25.85;;;13.02;;
12896;SDS011;6516;35.028;32.372;2022-12-07T01:51:55;22.00;;;12.55;;
12896;SDS011;6516;35.028;32.372;2022-12-07T01:54:34;24.42;;;13.63;;
12896;SDS011;6516;35.028;32.372;2022-12-07T01:57:03;24.90;;;13.37;;
12896;SDS011;6516;35.028;32.372;2022-12-07T01:59:33;25.80;;;13.85;;
12896;SDS011;6516;35.028;32.372;2022-12-07T02:02:04;26.58;;;14.63;;
12896;SDS011;6516;35.028;32.372;2022-12-07T02:04:38;26.33;;;13.70;;
12896;SDS011;6516;35.028;32.372;2022-12-07T02:07:06;25.38;;;13.77;;
12896;SDS011;6516;35.028;32.372;2022-12-07T02:09:34;27.57;;;13.40;;
12896;SDS011;6516;35.028;32.372;2022-12-07T02:12:02;24.80;;;13.45;;
12896;SDS011;6516;35.028;32.372;2022-12-07T02:14:31;25.88;;;14.00;;
12896;SDS011;6516;35.028;32.372;2022-12-07T02:17:03;23.65;;;12.88;;
12896;SDS011;6516;35.028;32.372;2022-12-07T02:19:50;24.02;;;12.57;;
12896;SDS011;6516;35.028;32.372;2022-12-07T02:23:04;22.80;;;12.50;;
12896;SDS011;6516;35.028;32.372;2022-12-07T02:26:24;24.77;;;11.85;;
12896;SDS011;6516;35.028;32.372;2022-12-07T02:29:22;23.98;;;13.02;;
12896;SDS011;6516;35.028;32.372;2022-12-07T02:31:56;22.15;;;12.63;;
12896;SDS011;6516;35.028;32.372;2022-12-07T02:34:34;23.80;;;12.68;;
12896;SDS011;6516;35.028;32.372;2022-12-07T02:37:12;25.07;;;12.97;;
12896;SDS011;6516;35.028;32.372;2022-12-07T02:39:53;23.50;;;12.35;;
12896;SDS011;6516;35.028;32.372;2022-12-07T02:42:26;24.85;;;13.43;;
12896;SDS011;6516;35.028;32.372;2022-12-07T02:45:02;20.50;;;12.25;;
12896;SDS011;6516;35.028;32.372;2022-12-07T02:47:32;24.95;;;13.57;;
12896;SDS011;6516;35.028;32.372;2022-12-07T02:50:02;23.33;;;12.10;;
12896;SDS011;6516;35.028;32.372;2022-12-07T02:52:31;22.17;;;12.18;;
12896;SDS011;6516;35.028;32.372;2022-12-07T02:54:59;22.10;;;12.52;;
12896;SDS011;6516;35.028;32.372;2022-12-07T02:57:31;22.98;;;12.00;;
12896;SDS011;6516;35.028;32.372;2022-12-07T03:00:15;23.63;;;11.95;;
12896;SDS011;6516;35.028;32.372;2022-12-07T03:02:54;22.70;;;12.13;;
12896;SDS011;6516;35.028;32.372;2022-12-07T03:05:38;21.35;;;12.20;;
12896;SDS011;6516;35.028;32.372;2022-12-07T03:08:30;22.10;;;11.15;;
12896;SDS011;6516;35.028;32.372;2022-12-07T03:11:16;20.70;;;12.20;;
12896;SDS011;6516;35.028;32.372;2022-12-07T03:13:50;21.08;;;11.35;;
12896;SDS011;6516;35.028;32.372;2022-12-07T03:16:31;19.83;;;10.93;;
12896;SDS011;6516;35.028;32.372;2022-12-07T03:19:04;20.35;;;10.73;;
12896;SDS011;6516;35.028;32.372;2022-12-07T03:21:37;20.42;;;11.27;;
12896;SDS011;6516;35.028;32.372;2022-12-07T03:24:08;24.00;;;11.93;;
12896;SDS011;6516;35.028;32.372;2022-12-07T03:26:42;20.40;;;11.60;;
12896;SDS011;6516;35.028;32.372;2022-12-07T03:29:17;21.43;;;10.90;;
12896;SDS011;6516;35.028;32.372;2022-12-07T03:31:52;21.02;;;10.38;;
12896;SDS011;6516;35.028;32.372;2022-12-07T03:34:24;18.65;;;10.27;;
12896;SDS011;6516;35.028;32.372;2022-12-07T03:37:00;19.25;;;10.32;;
12896;SDS011;6516;35.028;32.372;2022-12-07T03:39:33;22.02;;;11.25;;
12896;SDS011;6516;35.028;32.372;2022-12-07T03:42:06;21.03;;;10.80;;
12896;SDS011;6516;35.028;32.372;2022-12-07T03:44:37;21.85;;;11.32;;
12896;SDS011;6516;35.028;32.372;2022-12-07T03:47:11;20.23;;;11.35;;
12896;SDS011;6516;35.028;32.372;2022-12-07T03:49:45;20.23;;;11.32;;
12896;SDS011;6516;35.028;32.372;2022-12-07T03:52:19;22.95;;;11.68;;
12896;SDS011;6516;35.028;32.372;2022-12-07T03:54:53;22.17;;;11.53;;
12896;SDS011;6516;35.028;32.372;2022-12-07T03:57:27;23.73;;;11.82;;
12896;SDS011;6516;35.028;32.372;2022-12-07T03:59:57;22.67;;;11.48;;
12896;SDS011;6516;35.028;32.372;2022-12-07T04:02:27;21.63;;;11.18;;
12896;SDS011;6516;35.028;32.372;2022-12-07T04:04:55;20.08;;;11.10;;
12896;SDS011;6516;35.028;32.372;2022-12-07T04:07:23;19.77;;;10.53;;
12896;SDS011;6516;35.028;32.372;2022-12-07T04:09:51;22.38;;;11.35;;
12896;SDS011;6516;35.028;32.372;2022-12-07T04:12:20;25.88;;;12.07;;
12896;SDS011;6516;35.028;32.372;2022-12-07T04:14:47;21.02;;;11.35;;
12896;SDS011;6516;35.028;32.372;2022-12-07T04:17:15;21.20;;;10.82;;
12896;SDS011;6516;35.028;32.372;2022-12-07T04:19:44;21.00;;;10.30;;
12896;SDS011;6516;35.028;32.372;2022-12-07T04:22:12;20.70;;;11.45;;
12896;SDS011;6516;35.028;32.372;2022-12-07T04:24:40;21.63;;;11.85;;
12896;SDS011;6516;35.028;32.372;2022-12-07T04:27:08;23.20;;;12.43;;
12896;SDS011;6516;35.028;32.372;2022-12-07T04:29:35;22.42;;;11.60;;
12896;SDS011;6516;35.028;32.372;2022-12-07T04:32:04;21.93;;;10.27;;
12896;SDS011;6516;35.028;32.372;2022-12-07T04:34:31;18.35;;;10.48;;
12896;SDS011;6516;35.028;32.372;2022-12-07T04:37:01;23.10;;;11.05;;
12896;SDS011;6516;35.028;32.372;2022-12-07T04:39:30;20.77;;;10.70;;
12896;SDS011;6516;35.028;32.372;2022-12-07T04:41:59;21.33;;;10.95;;
12896;SDS011;6516;35.028;32.372;2022-12-07T04:44:28;20.23;;;10.30;;
12896;SDS011;6516;35.028;32.372;2022-12-07T04:46:57;20.50;;;10.85;;
12896;SDS011;6516;35.028;32.372;2022-12-07T04:49:25;19.52;;;10.52;;
12896;SDS011;6516;35.028;32.372;2022-12-07T04:51:53;20.20;;;10.80;;
12896;SDS011;6516;35.028;32.372;2022-12-07T04:54:23;20.15;;;10.38;;
12896;SDS011;6516;35.028;32.372;2022-12-07T04:56:51;20.73;;;11.43;;
12896;SDS011;6516;35.028;32.372;2022-12-07T04:59:19;20.83;;;11.23;;
12896;SDS011;6516;35.028;32.372;2022-12-07T05:01:47;19.77;;;10.98;;
12896;SDS011;6516;35.028;32.372;2022-12-07T05:04:15;23.15;;;11.30;;
12896;SDS011;6516;35.028;32.372;2022-12-07T05:06:43;21.52;;;10.85;;
12896;SDS011;6516;35.028;32.372;2022-12-07T05:09:11;20.83;;;11.10;;
12896;SDS011;6516;35.028;32.372;2022-12-07T05:11:40;21.40;;;11.68;;
12896;SDS011;6516;35.028;32.372;2022-12-07T05:14:10;23.80;;;11.45;;
12896;SDS011;6516;35.028;32.372;2022-12-07T05:16:42;24.08;;;11.00;;
12896;SDS011;6516;35.028;32.372;2022-12-07T05:19:11;18.33;;;10.90;;
12896;SDS011;6516;35.028;32.372;2022-12-07T05:21:39;22.90;;;10.47;;
12896;SDS011;6516;35.028;32.372;2022-12-07T05:24:07;23.23;;;11.13;;
12896;SDS011;6516;35.028;32.372;2022-12-07T05:26:40;22.65;;;11.13;;
12896;SDS011;6516;35.028;32.372;2022-12-07T05:29:10;19.80;;;10.70;;
12896;SDS011;6516;35.028;32.372;2022-12-07T05:31:39;20.88;;;11.10;;
12896;SDS011;6516;35.028;32.372;2022-12-07T05:34:08;19.90;;;11.20;;
12896;SDS011;6516;35.028;32.372;2022-12-07T05:36:36;20.50;;;10.52;;
12896;SDS011;6516;35.028;32.372;2022-12-07T05:39:04;21.23;;;10.93;;
12896;SDS011;6516;35.028;32.372;2022-12-07T05:41:32;18.67;;;10.85;;
12896;SDS011;6516;35.028;32.372;2022-12-07T05:44:18;19.15;;;10.98;;
12896;SDS011;6516;35.028;32.372;2022-12-07T05:46:46;22.30;;;10.37;;
12896;SDS011;6516;35.028;32.372;2022-12-07T05:49:14;19.10;;;10.10;;
12896;SDS011;6516;35.028;32.372;2022-12-07T05:51:42;16.50;;;9.68;;
12896;SDS011;6516;35.028;32.372;2022-12-07T05:54:10;18.58;;;10.57;;
12896;SDS011;6516;35.028;32.372;2022-12-07T05:56:38;17.00;;;9.57;;
12896;SDS011;6516;35.028;32.372;2022-12-07T05:59:07;14.87;;;9.43;;
12896;SDS011;6516;35.028;32.372;2022-12-07T06:01:54;17.08;;;9.52;;
12896;SDS011;6516;35.028;32.372;2022-12-07T06:04:25;15.95;;;9.93;;
12896;SDS011;6516;35.028;32.372;2022-12-07T06:06:54;20.15;;;10.13;;
12896;SDS011;6516;35.028;32.372;2022-12-07T06:09:23;16.35;;;9.55;;
12896;SDS011;6516;35.028;32.372;2022-12-07T06:11:52;17.70;;;10.33;;
12896;SDS011;6516;35.028;32.372;2022-12-07T06:14:38;14.30;;;8.57;;
12896;SDS011;6516;35.028;32.372;2022-12-07T06:17:08;14.30;;;8.73;;
12896;SDS011;6516;35.028;32.372;2022-12-07T06:19:37;14.95;;;8.65;;
12896;SDS011;6516;35.028;32.372;2022-12-07T06:22:05;16.17;;;8.82;;
12896;SDS011;6516;35.028;32.372;2022-12-07T06:24:34;13.73;;;7.87;;
12896;SDS011;6516;35.028;32.372;2022-12-07T06:27:02;15.15;;;8.30;;
12896;SDS011;6516;35.028;32.372;2022-12-07T06:29:31;16.60;;;7.72;;
12896;SDS011;6516;35.028;32.372;2022-12-07T06:31:59;12.18;;;7.30;;
12896;SDS011;6516;35.028;32.372;2022-12-07T06:34:28;13.10;;;7.90;;
12896;SDS011;6516;35.028;32.372;2022-12-07T06:36:56;14.23;;;8.00;;
12896;SDS011;6516;35.028;32.372;2022-12-07T06:39:25;12.98;;;7.85;;
12896;SDS011;6516;35.028;32.372;2022-12-07T06:41:54;12.15;;;7.85;;
12896;SDS011;6516;35.028;32.372;2022-12-07T06:44:24;15.80;;;7.88;;
12896;SDS011;6516;35.028;32.372;2022-12-07T06:46:52;13.43;;;7.30;;
12896;SDS011;6516;35.028;32.372;2022-12-07T06:49:20;16.53;;;7.07;;
12896;SDS011;6516;35.028;32.372;2022-12-07T06:51:49;12.88;;;6.95;;
12896;SDS011;6516;35.028;32.372;2022-12-07T06:54:17;10.98;;;6.75;;
12896;SDS011;6516;35.028;32.372;2022-12-07T06:56:45;12.27;;;7.00;;
12896;SDS011;6516;35.028;32.372;2022-12-07T06:59:13;11.85;;;6.60;;
12896;SDS011;6516;35.028;32.372;2022-12-07T07:01:40;12.23;;;7.03;;
12896;SDS011;6516;35.028;32.372;2022-12-07T07:04:08;11.35;;;6.22;;
12896;SDS011;6516;35.028;32.372;2022-12-07T07:06:36;10.48;;;6.15;;
12896;SDS011;6516;35.028;32.372;2022-12-07T07:09:05;13.00;;;6.45;;
12896;SDS011;6516;35.028;32.372;2022-12-07T07:11:34;12.98;;;7.05;;
12896;SDS011;6516;35.028;32.372;2022-12-07T07:14:02;12.80;;;6.43;;
12896;SDS011;6516;35.028;32.372;2022-12-07T07:16:30;12.82;;;6.32;;
12896;SDS011;6516;35.028;32.372;2022-12-07T07:18:58;12.07;;;6.60;;
12896;SDS011;6516;35.028;32.372;2022-12-07T07:21:26;13.30;;;6.43;;
12896;SDS011;6516;35.028;32.372;2022-12-07T07:23:54;12.25;;;6.22;;
12896;SDS011;6516;35.028;32.372;2022-12-07T07:26:23;11.23;;;6.00;;
12896;SDS011;6516;35.028;32.372;2022-12-07T07:28:51;11.05;;;6.10;;
12896;SDS011;6516;35.028;32.372;2022-12-07T07:31:19;9.98;;;6.07;;
12896;SDS011;6516;35.028;32.372;2022-12-07T07:33:46;10.02;;;5.55;;
12896;SDS011;6516;35.028;32.372;2022-12-07T07:36:14;10.10;;;5.88;;
12896;SDS011;6516;35.028;32.372;2022-12-07T07:38:42;9.57;;;5.60;;
12896;SDS011;6516;35.028;32.372;2022-12-07T07:41:09;10.73;;;6.03;;
12896;SDS011;6516;35.028;32.372;2022-12-07T07:43:39;11.43;;;5.47;;
12896;SDS011;6516;35.028;32.372;2022-12-07T07:46:06;12.40;;;5.82;;
12896;SDS011;6516;35.028;32.372;2022-12-07T07:48:35;14.18;;;6.10;;
12896;SDS011;6516;35.028;32.372;2022-12-07T07:51:04;9.93;;;5.53;;
12896;SDS011;6516;35.028;32.372;2022-12-07T07:53:33;11.00;;;5.90;;
12896;SDS011;6516;35.028;32.372;2022-12-07T07:56:01;13.68;;;5.55;;
12896;SDS011;6516;35.028;32.372;2022-12-07T07:58:29;9.85;;;5.60;;
12896;SDS011;6516;35.028;32.372;2022-12-07T08:00:58;12.60;;;5.63;;
12896;SDS011;6516;35.028;32.372;2022-12-07T08:03:31;10.10;;;5.40;;
12896;SDS011;6516;35.028;32.372;2022-12-07T08:05:59;9.73;;;5.78;;
12896;SDS011;6516;35.028;32.372;2022-12-07T08:08:27;9.90;;;5.57;;
12896;SDS011;6516;35.028;32.372;2022-12-07T08:10:55;8.75;;;5.25;;
12896;SDS011;6516;35.028;32.372;2022-12-07T08:13:25;11.27;;;5.50;;
12896;SDS011;6516;35.028;32.372;2022-12-07T08:15:54;10.70;;;5.70;;
12896;SDS011;6516;35.028;32.372;2022-12-07T08:18:23;9.68;;;5.50;;
12896;SDS011;6516;35.028;32.372;2022-12-07T08:20:50;11.00;;;5.65;;
12896;SDS011;6516;35.028;32.372;2022-12-07T08:23:18;11.57;;;5.97;;
12896;SDS011;6516;35.028;32.372;2022-12-07T08:25:46;11.45;;;5.60;;
12896;SDS011;6516;35.028;32.372;2022-12-07T08:28:14;12.17;;;6.00;;
12896;SDS011;6516;35.028;32.372;2022-12-07T08:30:43;10.65;;;6.07;;
12896;SDS011;6516;35.028;32.372;2022-12-07T08:33:11;10.05;;;5.60;;
12896;SDS011;6516;35.028;32.372;2022-12-07T08:35:41;11.57;;;5.60;;
12896;SDS011;6516;35.028;32.372;2022-12-07T08:38:08;11.55;;;5.80;;
12896;SDS011;6516;35.028;32.372;2022-12-07T08:40:36;11.53;;;5.63;;
12896;SDS011;6516;35.028;32.372;2022-12-07T08:43:04;9.93;;;5.40;;
12896;SDS011;6516;35.028;32.372;2022-12-07T08:45:31;9.43;;;5.68;;
12896;SDS011;6516;35.028;32.372;2022-12-07T08:48:01;10.65;;;5.70;;
12896;SDS011;6516;35.028;32.372;2022-12-07T08:50:35;10.23;;;5.22;;
12896;SDS011;6516;35.028;32.372;2022-12-07T08:53:05;11.00;;;5.27;;
12896;SDS011;6516;35.028;32.372;2022-12-07T08:55:34;11.85;;;5.30;;
12896;SDS011;6516;35.028;32.372;2022-12-07T08:58:02;8.30;;;4.93;;
12896;SDS011;6516;35.028;32.372;2022-12-07T09:00:30;10.38;;;4.93;;
12896;SDS011;6516;35.028;32.372;2022-12-07T09:02:58;10.10;;;4.82;;
12896;SDS011;6516;35.028;32.372;2022-12-07T09:05:26;10.63;;;4.67;;
12896;SDS011;6516;35.028;32.372;2022-12-07T09:07:55;8.60;;;4.63;;
12896;SDS011;6516;35.028;32.372;2022-12-07T09:10:29;7.78;;;4.80;;
12896;SDS011;6516;35.028;32.372;2022-12-07T09:12:56;8.82;;;5.40;;
12896;SDS011;6516;35.028;32.372;2022-12-07T09:15:26;7.32;;;4.68;;
12896;SDS011;6516;35.028;32.372;2022-12-07T09:17:53;10.70;;;5.70;;
12896;SDS011;6516;35.028;32.372;2022-12-07T09:20:21;9.70;;;4.82;;
12896;SDS011;6516;35.028;32.372;2022-12-07T09:22:49;10.13;;;5.25;;
12896;SDS011;6516;35.028;32.372;2022-12-07T09:25:17;10.05;;;5.45;;
12896;SDS011;6516;35.028;32.372;2022-12-07T09:27:46;10.80;;;4.97;;
12896;SDS011;6516;35.028;32.372;2022-12-07T09:30:14;10.13;;;5.40;;
12896;SDS011;6516;35.028;32.372;2022-12-07T09:32:42;9.85;;;4.97;;
12896;SDS011;6516;35.028;32.372;2022-12-07T09:35:10;9.00;;;5.30;;
12896;SDS011;6516;35.028;32.372;2022-12-07T09:37:38;11.02;;;5.15;;
12896;SDS011;6516;35.028;32.372;2022-12-07T09:40:06;7.65;;;4.60;;
12896;SDS011;6516;35.028;32.372;2022-12-07T09:42:35;10.40;;;5.13;;
12896;SDS011;6516;35.028;32.372;2022-12-07T09:45:12;9.18;;;5.18;;
12896;SDS011;6516;35.028;32.372;2022-12-07T09:47:44;11.07;;;5.10;;
12896;SDS011;6516;35.028;32.372;2022-12-07T09:50:13;10.45;;;4.90;;
12896;SDS011;6516;35.028;32.372;2022-12-07T09:52:43;10.00;;;5.10;;
12896;SDS011;6516;35.028;32.372;2022-12-07T09:55:13;11.23;;;5.27;;
12896;SDS011;6516;35.028;32.372;2022-12-07T09:57:44;14.10;;;5.20;;
12896;SDS011;6516;35.028;32.372;2022-12-07T10:00:14;9.20;;;5.03;;
12896;SDS011;6516;35.028;32.372;2022-12-07T10:02:46;8.00;;;4.80;;
12896;SDS011;6516;35.028;32.372;2022-12-07T10:05:18;9.60;;;5.13;;
12896;SDS011;6516;35.028;32.372;2022-12-07T10:07:58;9.90;;;4.90;;
12896;SDS011;6516;35.028;32.372;2022-12-07T10:10:27;9.85;;;4.78;;
12896;SDS011;6516;35.028;32.372;2022-12-07T10:12:59;9.07;;;4.95;;
12896;SDS011;6516;35.028;32.372;2022-12-07T10:15:47;9.77;;;5.20;;
12896;SDS011;6516;35.028;32.372;2022-12-07T10:18:26;10.38;;;4.80;;
12896;SDS011;6516;35.028;32.372;2022-12-07T10:21:04;10.47;;;4.30;;
12896;SDS011;6516;35.028;32.372;2022-12-07T10:23:38;10.60;;;4.50;;
12896;SDS011;6516;35.028;32.372;2022-12-07T10:29:02;8.07;;;4.57;;
12896;SDS011;6516;35.028;32.372;2022-12-07T10:31:50;10.70;;;4.18;;
12896;SDS011;6516;35.028;32.372;2022-12-07T10:34:24;9.93;;;4.57;;
12896;SDS011;6516;35.028;32.372;2022-12-07T10:37:06;8.15;;;4.60;;
12896;SDS011;6516;35.028;32.372;2022-12-07T10:39:43;8.70;;;4.55;;
12896;SDS011;6516;35.028;32.372;2022-12-07T10:42:16;9.43;;;4.70;;
12896;SDS011;6516;35.028;32.372;2022-12-07T10:44:46;7.78;;;4.50;;
12896;SDS011;6516;35.028;32.372;2022-12-07T10:47:20;10.30;;;4.63;;
12896;SDS011;6516;35.028;32.372;2022-12-07T10:53:08;9.77;;;4.47;;
12896;SDS011;6516;35.028;32.372;2022-12-07T10:55:54;7.20;;;4.25;;
12896;SDS011;6516;35.028;32.372;2022-12-07T10:58:47;9.32;;;4.65;;
12896;SDS011;6516;35.028;32.372;2022-12-07T11:01:31;9.30;;;4.40;;
12896;SDS011;6516;35.028;32.372;2022-12-07T11:04:19;9.07;;;4.30;;
12896;SDS011;6516;35.028;32.372;2022-12-07T11:06:59;8.50;;;4.78;;
12896;SDS011;6516;35.028;32.372;2022-12-07T11:09:38;7.68;;;4.55;;
12896;SDS011;6516;35.028;32.372;2022-12-07T11:12:21;9.45;;;4.65;;
12896;SDS011;6516;35.028;32.372;2022-12-07T11:15:01;8.20;;;4.33;;
12896;SDS011;6516;35.028;32.372;2022-12-07T11:17:42;9.63;;;4.50;;
12896;SDS011;6516;35.028;32.372;2022-12-07T11:20:24;10.48;;;4.82;;
12896;SDS011;6516;35.028;32.372;2022-12-07T11:23:04;8.57;;;4.85;;
12896;SDS011;6516;35.028;32.372;2022-12-07T11:25:48;9.20;;;4.85;;
12896;SDS011;6516;35.028;32.372;2022-12-07T11:28:25;7.90;;;4.70;;
12896;SDS011;6516;35.028;32.372;2022-12-07T11:31:18;11.02;;;5.18;;
12896;SDS011;6516;35.028;32.372;2022-12-07T11:33:53;10.25;;;5.05;;
12896;SDS011;6516;35.028;32.372;2022-12-07T11:36:35;10.82;;;5.05;;
12896;SDS011;6516;35.028;32.372;2022-12-07T11:39:10;9.15;;;4.88;;
12896;SDS011;6516;35.028;32.372;2022-12-07T11:41:51;8.97;;;4.57;;
12896;SDS011;6516;35.028;32.372;2022-12-07T11:44:35;9.30;;;4.78;;
12896;SDS011;6516;35.028;32.372;2022-12-07T11:47:14;10.68;;;4.88;;
12896;SDS011;6516;35.028;32.372;2022-12-07T11:49:52;8.55;;;5.35;;
12896;SDS011;6516;35.028;32.372;2022-12-07T11:52:27;9.18;;;4.80;;
12896;SDS011;6516;35.028;32.372;2022-12-07T11:55:21;7.90;;;4.70;;
12896;SDS011;6516;35.028;32.372;2022-12-07T11:57:58;9.40;;;4.70;;
12896;SDS011;6516;35.028;32.372;2022-12-07T12:00:31;8.95;;;4.22;;
12896;SDS011;6516;35.028;32.372;2022-12-07T12:03:01;7.55;;;4.00;;
12896;SDS011;6516;35.028;32.372;2022-12-07T12:05:38;8.10;;;4.45;;
12896;SDS011;6516;35.028;32.372;2022-12-07T12:08:11;8.97;;;4.70;;
12896;SDS011;6516;35.028;32.372;2022-12-07T12:10:47;11.45;;;5.15;;
12896;SDS011;6516;35.028;32.372;2022-12-07T12:13:31;7.97;;;4.57;;
12896;SDS011;6516;35.028;32.372;2022-12-07T12:19:33;8.15;;;4.60;;
12896;SDS011;6516;35.028;32.372;2022-12-07T12:22:08;8.17;;;4.30;;
12896;SDS011;6516;35.028;32.372;2022-12-07T12:24:44;9.05;;;4.38;;
12896;SDS011;6516;35.028;32.372;2022-12-07T12:27:17;8.52;;;4.35;;
12896;SDS011;6516;35.028;32.372;2022-12-07T12:29:52;9.20;;;4.72;;
12896;SDS011;6516;35.028;32.372;2022-12-07T12:32:23;12.25;;;5.10;;
12896;SDS011;6516;35.028;32.372;2022-12-07T12:37:54;9.32;;;4.80;;
12896;SDS011;6516;35.028;32.372;2022-12-07T12:40:57;10.25;;;4.88;;
12896;SDS011;6516;35.028;32.372;2022-12-07T12:43:45;11.30;;;5.20;;
12896;SDS011;6516;35.028;32.372;2022-12-07T12:55:27;9.10;;;4.60;;
12896;SDS011;6516;35.028;32.372;2022-12-07T12:58:35;10.90;;;4.68;;
12896;SDS011;6516;35.028;32.372;2022-12-07T13:01:36;10.10;;;4.90;;
12896;SDS011;6516;35.028;32.372;2022-12-07T13:10:25;9.63;;;4.85;;
12896;SDS011;6516;35.028;32.372;2022-12-07T13:13:25;8.18;;;5.10;;
12896;SDS011;6516;35.028;32.372;2022-12-07T13:25:23;10.50;;;5.38;;
12896;SDS011;6516;35.028;32.372;2022-12-07T13:28:14;16.55;;;5.75;;
12896;SDS011;6516;35.028;32.372;2022-12-07T13:30:53;10.02;;;5.60;;
12896;SDS011;6516;35.028;32.372;2022-12-07T13:33:38;11.57;;;5.00;;
12896;SDS011;6516;35.028;32.372;2022-12-07T13:36:09;12.45;;;5.28;;
12896;SDS011;6516;35.028;32.372;2022-12-07T13:38:50;9.25;;;5.40;;
12896;SDS011;6516;35.028;32.372;2022-12-07T13:41:21;10.95;;;5.80;;
12896;SDS011;6516;35.028;32.372;2022-12-07T13:43:52;11.73;;;5.22;;
12896;SDS011;6516;35.028;32.372;2022-12-07T13:46:32;10.87;;;5.40;;
12896;SDS011;6516;35.028;32.372;2022-12-07T13:49:16;11.95;;;5.60;;
12896;SDS011;6516;35.028;32.372;2022-12-07T13:51:46;14.52;;;6.32;;
12896;SDS011;6516;35.028;32.372;2022-12-07T13:54:15;9.45;;;5.82;;
12896;SDS011;6516;35.028;32.372;2022-12-07T13:56:46;12.13;;;5.50;;
12896;SDS011;6516;35.028;32.372;2022-12-07T13:59:18;10.57;;;5.37;;
12896;SDS011;6516;35.028;32.372;2022-12-07T14:01:50;10.00;;;5.20;;
12896;SDS011;6516;35.028;32.372;2022-12-07T14:04:24;10.07;;;5.30;;
12896;SDS011;6516;35.028;32.372;2022-12-07T14:06:59;13.38;;;5.32;;
12896;SDS011;6516;35.028;32.372;2022-12-07T14:09:29;10.32;;;5.95;;
12896;SDS011;6516;35.028;32.372;2022-12-07T14:11:57;10.30;;;5.30;;
12896;SDS011;6516;35.028;32.372;2022-12-07T14:14:25;9.80;;;5.28;;
12896;SDS011;6516;35.028;32.372;2022-12-07T14:17:01;12.77;;;5.55;;
12896;SDS011;6516;35.028;32.372;2022-12-07T14:19:49;8.70;;;5.30;;
12896;SDS011;6516;35.028;32.372;2022-12-07T14:22:27;9.43;;;5.28;;
12896;SDS011;6516;35.028;32.372;2022-12-07T14:24:59;10.93;;;5.30;;
12896;SDS011;6516;35.028;32.372;2022-12-07T14:27:53;10.75;;;5.30;;
12896;SDS011;6516;35.028;32.372;2022-12-07T14:30:24;11.55;;;5.75;;
12896;SDS011;6516;35.028;32.372;2022-12-07T14:32:57;10.80;;;6.00;;
12896;SDS011;6516;35.028;32.372;2022-12-07T14:35:27;10.25;;;5.93;;
12896;SDS011;6516;35.028;32.372;2022-12-07T14:37:55;10.07;;;5.80;;
12896;SDS011;6516;35.028;32.372;2022-12-07T14:40:24;10.60;;;5.47;;
12896;SDS011;6516;35.028;32.372;2022-12-07T14:42:54;9.93;;;5.57;;
12896;SDS011;6516;35.028;32.372;2022-12-07T14:45:28;13.77;;;6.60;;
12896;SDS011;6516;35.028;32.372;2022-12-07T14:48:04;11.38;;;6.10;;
12896;SDS011;6516;35.028;32.372;2022-12-07T14:50:32;11.53;;;6.10;;
12896;SDS011;6516;35.028;32.372;2022-12-07T14:53:05;13.60;;;6.50;;
12896;SDS011;6516;35.028;32.372;2022-12-07T14:55:40;13.93;;;7.10;;
12896;SDS011;6516;35.028;32.372;2022-12-07T14:58:11;15.23;;;6.72;;
12896;SDS011;6516;35.028;32.372;2022-12-07T15:00:41;13.38;;;6.35;;
12896;SDS011;6516;35.028;32.372;2022-12-07T15:03:10;13.33;;;6.57;;
12896;SDS011;6516;35.028;32.372;2022-12-07T15:05:38;12.25;;;6.63;;
12896;SDS011;6516;35.028;32.372;2022-12-07T15:08:08;14.45;;;6.50;;
12896;SDS011;6516;35.028;32.372;2022-12-07T15:10:37;11.40;;;6.38;;
12896;SDS011;6516;35.028;32.372;2022-12-07T15:13:05;12.65;;;6.30;;
12896;SDS011;6516;35.028;32.372;2022-12-07T15:15:51;11.97;;;6.53;;
12896;SDS011;6516;35.028;32.372;2022-12-07T15:18:23;11.65;;;6.75;;
12896;SDS011;6516;35.028;32.372;2022-12-07T15:20:51;11.73;;;6.45;;
12896;SDS011;6516;35.028;32.372;2022-12-07T15:23:19;11.73;;;6.25;;
12896;SDS011;6516;35.028;32.372;2022-12-07T15:25:47;13.40;;;7.32;;
12896;SDS011;6516;35.028;32.372;2022-12-07T15:28:16;12.03;;;6.47;;
12896;SDS011;6516;35.028;32.372;2022-12-07T15:30:44;13.07;;;6.43;;
12896;SDS011;6516;35.028;32.372;2022-12-07T15:33:12;14.00;;;7.05;;
12896;SDS011;6516;35.028;32.372;2022-12-07T15:35:43;10.57;;;6.47;;
12896;SDS011;6516;35.028;32.372;2022-12-07T15:38:12;13.57;;;6.20;;
12896;SDS011;6516;35.028;32.372;2022-12-07T15:40:40;10.80;;;5.90;;